createdAt,value
2022-09-12T00:01:52.189Z,18.10
2022-09-12T00:04:28.936Z,18.20
2022-09-12T00:07:00.700Z,18.10
2022-09-12T00:09:30.675Z,17.90
2022-09-12T00:11:58.789Z,17.80
2022-09-12T00:14:28.362Z,17.80
2022-09-12T00:16:58.481Z,17.90
2022-09-12T00:19:28.209Z,18.00
2022-09-12T00:21:58.624Z,18.10
2022-09-12T00:24:32.573Z,18.20
2022-09-12T00:27:02.689Z,18.10
2022-09-12T00:29:31.328Z,18.20
2022-09-12T00:32:00.491Z,18.10
2022-09-12T00:34:29.800Z,17.80
2022-09-12T00:37:01.928Z,17.70
2022-09-12T00:39:30.321Z,17.50
2022-09-12T00:41:59.410Z,17.50
2022-09-12T00:44:52.265Z,17.50
2022-09-12T00:47:23.710Z,17.50
2022-09-12T00:49:54.971Z,17.70
2022-09-12T00:52:26.471Z,17.80
2022-09-12T00:54:58.272Z,17.70
2022-09-12T00:57:33.164Z,17.80
2022-09-12T01:00:09.448Z,17.80
2022-09-12T01:02:38.358Z,17.90
2022-09-12T01:05:07.902Z,17.80
2022-09-12T01:07:40.029Z,17.50
2022-09-12T01:10:10.522Z,17.50
2022-09-12T01:12:40.105Z,17.40
2022-09-12T01:15:10.408Z,17.40
2022-09-12T01:17:48.676Z,17.30
2022-09-12T01:20:46.118Z,17.20
2022-09-12T01:23:39.007Z,17.40
2022-09-12T01:26:35.287Z,17.60
2022-09-12T01:29:15.414Z,17.40
2022-09-12T01:31:53.209Z,17.30
2022-09-12T01:34:28.199Z,17.20
2022-09-12T01:37:02.881Z,17.30
2022-09-12T01:39:36.221Z,17.30
2022-09-12T01:42:10.880Z,17.30
2022-09-12T01:44:44.697Z,17.40
2022-09-12T01:47:18.166Z,17.40
2022-09-12T01:49:52.029Z,17.50
2022-09-12T01:52:26.619Z,17.70
2022-09-12T01:54:57.334Z,17.60
2022-09-12T01:57:29.206Z,17.40
2022-09-12T02:00:00.781Z,17.40
2022-09-12T02:02:34.442Z,17.40
2022-09-12T02:05:09.797Z,17.30
2022-09-12T02:07:40.170Z,17.20
2022-09-12T02:10:10.832Z,17.30
2022-09-12T02:12:43.201Z,17.40
2022-09-12T02:15:13.434Z,17.50
2022-09-12T02:17:48.336Z,17.60
2022-09-12T02:20:37.517Z,17.60
2022-09-12T02:23:10.312Z,17.60
2022-09-12T02:25:43.177Z,17.80
2022-09-12T02:28:13.631Z,17.80
2022-09-12T02:30:47.274Z,17.60
2022-09-12T02:33:20.651Z,17.40
2022-09-12T02:35:53.931Z,17.50
2022-09-12T02:38:26.421Z,17.50
2022-09-12T02:40:55.722Z,17.50
2022-09-12T02:43:23.925Z,17.30
2022-09-12T02:45:52.944Z,17.20
2022-09-12T02:48:25.649Z,17.20
2022-09-12T02:50:55.498Z,17.20
2022-09-12T02:53:24.728Z,17.20
2022-09-12T02:55:53.649Z,17.20
2022-09-12T02:58:27.769Z,17.20
2022-09-12T03:01:00.082Z,17.10
2022-09-12T03:03:43.290Z,17.20
2022-09-12T03:06:17.393Z,17.30
2022-09-12T03:09:02.371Z,17.50
2022-09-12T03:11:38.163Z,17.40
2022-09-12T03:14:21.465Z,17.30
2022-09-12T03:16:55.396Z,17.10
2022-09-12T03:19:33.632Z,17.10
2022-09-12T03:22:11.524Z,17.10
2022-09-12T03:24:44.414Z,17.10
2022-09-12T03:27:18.724Z,17.00
2022-09-12T03:29:48.891Z,16.90
2022-09-12T03:32:19.453Z,16.90
2022-09-12T03:34:49.714Z,17.00
2022-09-12T03:37:20.441Z,17.00
2022-09-12T03:39:50.105Z,16.90
2022-09-12T03:42:23.150Z,16.80
2022-09-12T03:44:52.535Z,16.80
2022-09-12T03:47:23.463Z,16.80
2022-09-12T03:49:54.397Z,16.80
2022-09-12T03:52:23.613Z,16.80
2022-09-12T03:54:52.517Z,17.00
2022-09-12T03:57:21.552Z,17.20
2022-09-12T03:59:51.035Z,17.30
2022-09-12T04:02:20.388Z,17.40
2022-09-12T04:04:52.777Z,17.30
2022-09-12T04:07:24.082Z,17.30
2022-09-12T04:09:53.239Z,17.10
2022-09-12T04:12:22.504Z,17.00
2022-09-12T04:14:52.349Z,16.80
2022-09-12T04:17:20.363Z,16.70
2022-09-12T04:19:50.721Z,16.70
2022-09-12T04:22:21.099Z,16.70
2022-09-12T04:24:50.778Z,16.70
2022-09-12T04:27:22.153Z,16.60
2022-09-12T04:29:54.924Z,16.70
2022-09-12T04:32:23.438Z,16.80
2022-09-12T04:34:53.495Z,17.20
2022-09-12T04:37:25.067Z,17.30
2022-09-12T04:39:57.876Z,17.40
2022-09-12T04:42:26.471Z,17.10
2022-09-12T04:44:57.766Z,17.00
2022-09-12T04:47:26.354Z,16.90
2022-09-12T04:50:01.823Z,16.90
2022-09-12T04:52:30.863Z,17.00
2022-09-12T04:55:00.307Z,17.10
2022-09-12T04:57:28.439Z,17.20
2022-09-12T04:59:56.625Z,17.00
2022-09-12T05:02:25.446Z,17.00
2022-09-12T05:04:54.526Z,17.00
2022-09-12T05:07:23.459Z,16.80
2022-09-12T05:09:52.712Z,16.70
2022-09-12T05:12:22.776Z,16.70
2022-09-12T05:14:59.867Z,16.70
2022-09-12T05:17:29.915Z,16.70
2022-09-12T05:19:58.251Z,16.80
2022-09-12T05:22:27.533Z,16.90
2022-09-12T05:24:55.750Z,17.00
2022-09-12T05:27:26.779Z,17.00
2022-09-12T05:29:55.291Z,17.10
2022-09-12T05:32:25.773Z,17.00
2022-09-12T05:34:55.786Z,17.00
2022-09-12T05:37:26.885Z,16.80
2022-09-12T05:40:00.683Z,16.70
2022-09-12T05:42:32.127Z,16.60
2022-09-12T05:45:01.517Z,16.50
2022-09-12T05:47:30.897Z,16.50
2022-09-12T05:49:59.183Z,16.40
2022-09-12T05:52:27.615Z,16.40
2022-09-12T05:54:55.682Z,16.40
2022-09-12T05:57:25.279Z,16.30
2022-09-12T05:59:55.952Z,16.30
2022-09-12T06:02:24.609Z,16.30
2022-09-12T06:04:59.082Z,16.30
2022-09-12T06:07:27.378Z,16.40
2022-09-12T06:09:56.407Z,16.30
2022-09-12T06:12:26.732Z,16.40
2022-09-12T06:14:57.808Z,16.30
2022-09-12T06:17:26.588Z,16.40
2022-09-12T06:19:57.822Z,16.40
2022-09-12T06:22:27.431Z,16.80
2022-09-12T06:24:58.801Z,16.90
2022-09-12T06:27:32.298Z,17.10
2022-09-12T06:30:02.916Z,17.30
2022-09-12T06:32:31.673Z,17.20
2022-09-12T06:35:00.373Z,17.10
2022-09-12T06:37:29.771Z,16.90
2022-09-12T06:39:58.918Z,16.80
2022-09-12T06:42:28.600Z,16.90
2022-09-12T06:45:07.471Z,16.90
2022-09-12T06:47:36.477Z,17.00
2022-09-12T06:50:11.120Z,17.50
2022-09-12T06:52:39.717Z,17.80
2022-09-12T06:55:08.767Z,17.60
2022-09-12T06:57:38.959Z,17.50
2022-09-12T07:00:10.294Z,17.50
2022-09-12T07:02:39.513Z,17.50
2022-09-12T07:05:09.302Z,17.50
2022-09-12T07:07:38.622Z,17.60
2022-09-12T07:10:07.797Z,17.70
2022-09-12T07:12:42.040Z,17.80
2022-09-12T07:15:12.387Z,17.90
2022-09-12T07:17:40.477Z,17.80
2022-09-12T07:20:09.826Z,17.70
2022-09-12T07:22:39.471Z,17.70
2022-09-12T07:25:09.006Z,17.80
2022-09-12T07:27:38.776Z,17.90
2022-09-12T07:30:08.595Z,18.20
2022-09-12T07:32:38.859Z,18.30
2022-09-12T07:35:12.999Z,18.50
2022-09-12T07:37:41.672Z,19.00
2022-09-12T07:40:11.246Z,18.90
2022-09-12T07:42:40.656Z,18.90
2022-09-12T07:45:10.335Z,19.00
2022-09-12T07:47:41.162Z,19.20
2022-09-12T07:50:09.587Z,19.30
2022-09-12T07:52:41.101Z,19.20
2022-09-12T07:55:09.635Z,19.10
2022-09-12T07:57:39.614Z,19.10
2022-09-12T08:00:10.967Z,19.20
2022-09-12T08:02:44.106Z,19.50
2022-09-12T08:05:12.861Z,19.70
2022-09-12T08:07:43.837Z,19.80
2022-09-12T08:10:13.870Z,20.10
2022-09-12T08:12:45.022Z,19.90
2022-09-12T08:15:13.597Z,20.00
2022-09-12T08:17:46.351Z,19.90
2022-09-12T08:20:19.804Z,20.00
2022-09-12T08:22:49.336Z,20.00
2022-09-12T08:25:18.624Z,20.20
2022-09-12T08:27:50.362Z,20.30
2022-09-12T08:30:19.498Z,20.30
2022-09-12T08:32:48.992Z,20.20
2022-09-12T08:35:18.295Z,20.40
2022-09-12T08:37:46.527Z,20.40
2022-09-12T08:40:19.006Z,20.30
2022-09-12T08:43:02.240Z,20.40
2022-09-12T08:45:35.350Z,20.60
2022-09-12T08:48:13.669Z,20.60
2022-09-12T08:50:49.920Z,21.00
2022-09-12T08:53:23.191Z,21.00
2022-09-12T08:55:58.449Z,21.10
2022-09-12T08:58:28.986Z,20.90
2022-09-12T09:01:01.804Z,20.90
2022-09-12T09:04:11.382Z,20.80
2022-09-12T09:06:54.291Z,21.10
2022-09-12T09:09:31.384Z,21.00
2022-09-12T09:12:10.117Z,21.10
2022-09-12T09:14:50.699Z,21.20
2022-09-12T09:17:21.474Z,21.30
2022-09-12T09:19:54.797Z,21.20
2022-09-12T09:22:28.973Z,21.10
2022-09-12T09:25:02.813Z,21.10
2022-09-12T09:27:40.947Z,21.10
2022-09-12T09:30:17.290Z,21.30
2022-09-12T09:32:47.961Z,21.60
2022-09-12T09:35:20.076Z,22.00
2022-09-12T09:37:59.662Z,21.60
2022-09-12T09:40:40.798Z,21.50
2022-09-12T09:43:16.535Z,21.50
2022-09-12T09:45:47.937Z,21.60
2022-09-12T09:48:21.956Z,21.90
2022-09-12T09:50:52.879Z,22.00
2022-09-12T09:53:32.939Z,22.10
2022-09-12T09:56:06.327Z,22.00
2022-09-12T09:58:36.167Z,22.00
2022-09-12T10:01:10.011Z,22.10
2022-09-12T10:03:39.188Z,22.20
2022-09-12T10:06:23.025Z,22.40
2022-09-12T10:08:52.555Z,22.40
2022-09-12T10:11:31.078Z,22.40
2022-09-12T10:14:00.659Z,22.50
2022-09-12T10:16:30.298Z,22.50
2022-09-12T10:18:59.674Z,22.50
2022-09-12T10:21:31.952Z,22.70
2022-09-12T10:24:07.318Z,22.50
2022-09-12T10:26:37.277Z,22.50
2022-09-12T10:29:13.317Z,22.50
2022-09-12T10:31:47.584Z,22.70
2022-09-12T10:34:30.556Z,22.90
2022-09-12T10:37:03.158Z,22.70
2022-09-12T10:39:33.434Z,22.70
2022-09-12T10:42:01.675Z,22.60
2022-09-12T10:44:36.605Z,22.90
2022-09-12T10:47:25.475Z,23.10
2022-09-12T10:49:55.208Z,23.20
2022-09-12T10:52:28.510Z,23.10
2022-09-12T10:54:56.685Z,23.40
2022-09-12T10:57:39.206Z,23.20
2022-09-12T11:00:14.388Z,23.40
2022-09-12T11:02:49.414Z,23.50
2022-09-12T11:05:23.547Z,23.60
2022-09-12T11:07:56.774Z,23.50
2022-09-12T11:10:34.300Z,23.60
2022-09-12T11:13:19.407Z,23.70
2022-09-12T11:15:54.480Z,23.40
2022-09-12T11:18:31.430Z,23.60
2022-09-12T11:21:09.465Z,23.80
2022-09-12T11:23:54.099Z,23.90
2022-09-12T11:26:28.720Z,24.10
2022-09-12T11:29:05.161Z,23.80
2022-09-12T11:31:45.012Z,23.90
2022-09-12T11:34:16.967Z,23.90
2022-09-12T11:36:51.399Z,24.10
2022-09-12T11:39:26.078Z,24.20
2022-09-12T11:41:58.196Z,24.10
2022-09-12T11:44:29.629Z,24.40
2022-09-12T11:46:58.612Z,24.70
2022-09-12T11:49:33.545Z,24.60
2022-09-12T11:52:10.522Z,24.60
2022-09-12T11:54:42.844Z,24.40
2022-09-12T11:57:15.950Z,24.30
2022-09-12T11:59:47.698Z,24.20
2022-09-12T12:02:21.177Z,24.30
2022-09-12T12:04:56.930Z,24.40
2022-09-12T12:07:31.490Z,24.50
2022-09-12T12:10:01.072Z,24.40
2022-09-12T12:12:30.063Z,24.40
2022-09-12T12:14:59.042Z,24.50
2022-09-12T12:17:29.671Z,24.40
2022-09-12T12:20:05.585Z,24.80
2022-09-12T12:22:36.014Z,24.90
2022-09-12T12:25:08.965Z,25.20
2022-09-12T12:27:50.019Z,25.20
2022-09-12T12:30:39.672Z,25.20
2022-09-12T12:33:38.761Z,25.10
2022-09-12T12:36:09.569Z,25.20
2022-09-12T12:38:41.793Z,25.20
2022-09-12T12:41:43.081Z,25.40
2022-09-12T12:44:27.428Z,25.20
2022-09-12T12:47:15.623Z,25.20
2022-09-12T12:49:51.923Z,25.20
2022-09-12T12:52:20.902Z,25.30
2022-09-12T12:54:56.801Z,25.80
2022-09-12T12:57:28.358Z,25.80
2022-09-12T12:59:59.309Z,25.60
2022-09-12T13:02:46.773Z,25.90
2022-09-12T13:05:30.281Z,25.80
2022-09-12T13:08:34.614Z,25.80
2022-09-12T13:11:20.307Z,25.90
2022-09-12T13:14:22.261Z,25.50
2022-09-12T13:17:12.341Z,25.50
2022-09-12T13:20:26.191Z,25.80
2022-09-12T13:23:18.323Z,25.90
2022-09-12T13:26:02.623Z,25.70
2022-09-12T13:28:53.292Z,25.80
2022-09-12T13:31:35.671Z,26.10
2022-09-12T13:34:29.329Z,26.10
2022-09-12T13:37:51.353Z,26.10
2022-09-12T13:40:38.278Z,26.00
2022-09-12T13:43:39.176Z,25.80
2022-09-12T13:46:24.314Z,26.10
2022-09-12T13:49:27.135Z,26.00
2022-09-12T13:52:15.494Z,26.10
2022-09-12T13:55:10.509Z,26.10
2022-09-12T13:58:12.312Z,26.40
2022-09-12T14:01:03.405Z,26.60
2022-09-12T14:04:18.464Z,26.40
2022-09-12T14:07:01.871Z,26.20
2022-09-12T14:09:54.336Z,26.20
2022-09-12T14:12:42.534Z,26.40
2022-09-12T14:15:35.296Z,26.50
2022-09-12T14:18:33.696Z,26.70
2022-09-12T14:21:19.269Z,26.30
2022-09-12T14:24:12.463Z,26.40
2022-09-12T14:26:57.277Z,26.50
2022-09-12T14:29:54.031Z,26.50
2022-09-12T14:32:36.323Z,26.30
2022-09-12T14:35:26.725Z,26.20
2022-09-12T14:38:22.272Z,26.50
2022-09-12T14:41:08.618Z,26.80
2022-09-12T14:44:02.809Z,26.70
2022-09-12T14:46:46.236Z,26.50
2022-09-12T14:49:42.421Z,26.70
2022-09-12T14:52:28.969Z,26.70
2022-09-12T14:55:39.348Z,26.70
2022-09-12T14:58:34.025Z,26.70
2022-09-12T15:01:34.326Z,26.50
2022-09-12T15:04:38.509Z,26.70
2022-09-12T15:07:30.333Z,26.80
2022-09-12T15:10:25.926Z,26.90
2022-09-12T15:13:29.307Z,27.20
2022-09-12T15:16:19.499Z,27.20
2022-09-12T15:19:10.397Z,27.20
2022-09-12T15:21:54.065Z,27.30
2022-09-12T15:24:47.386Z,27.20
2022-09-12T15:27:29.616Z,27.20
2022-09-12T15:30:28.357Z,27.00
2022-09-12T15:33:18.779Z,27.10
2022-09-12T15:36:03.290Z,27.10
2022-09-12T15:38:57.695Z,27.30
2022-09-12T15:41:45.398Z,27.30
2022-09-12T15:44:37.795Z,27.30
2022-09-12T15:47:22.309Z,27.50
2022-09-12T15:50:12.466Z,27.60
2022-09-12T15:53:05.310Z,27.60
2022-09-12T15:55:47.745Z,27.50
2022-09-12T15:58:49.994Z,27.10
2022-09-12T16:01:43.352Z,27.20
2022-09-12T16:04:35.308Z,27.50
2022-09-12T16:07:23.131Z,27.60
2022-09-12T16:10:14.378Z,27.30
2022-09-12T16:13:07.872Z,27.10
2022-09-12T16:15:57.367Z,27.20
2022-09-12T16:18:48.622Z,27.20
2022-09-12T16:21:32.353Z,26.80
2022-09-12T16:24:24.845Z,26.50
2022-09-12T16:27:08.385Z,26.70
2022-09-12T16:29:59.610Z,26.40
2022-09-12T16:32:44.314Z,26.30
2022-09-12T16:35:30.836Z,26.20
2022-09-12T16:38:28.312Z,26.30
2022-09-12T16:41:10.723Z,26.10
2022-09-12T16:44:03.408Z,26.10
2022-09-12T16:46:46.766Z,26.10
2022-09-12T16:49:39.336Z,26.10
2022-09-12T16:52:21.861Z,26.10
2022-09-12T16:55:12.334Z,25.90
2022-09-12T16:58:04.107Z,25.80
2022-09-12T17:00:48.341Z,25.80
2022-09-12T17:03:37.551Z,25.70
2022-09-12T17:06:34.335Z,25.60
2022-09-12T17:09:18.634Z,25.50
2022-09-12T17:12:08.429Z,25.40
2022-09-12T17:15:10.326Z,25.60
2022-09-12T17:18:09.346Z,25.40
2022-09-12T17:21:00.397Z,25.20
2022-09-12T17:23:45.701Z,25.10
2022-09-12T17:26:39.689Z,25.00
2022-09-12T17:29:22.532Z,25.00
2022-09-12T17:32:17.434Z,24.90
2022-09-12T17:35:02.939Z,24.80
2022-09-12T17:38:01.409Z,24.70
2022-09-12T17:40:59.428Z,24.70
2022-09-12T17:43:50.425Z,24.60
2022-09-12T17:46:34.931Z,24.50
2022-09-12T17:49:29.417Z,24.40
2022-09-12T17:52:14.073Z,24.40
2022-09-12T17:55:08.520Z,24.30
2022-09-12T17:57:59.238Z,24.30
2022-09-12T18:01:01.407Z,24.20
2022-09-12T18:03:51.894Z,24.10
2022-09-12T18:06:35.395Z,24.00
2022-09-12T18:09:27.948Z,24.00
2022-09-12T18:12:11.354Z,23.90
2022-09-12T18:15:13.719Z,23.90
2022-09-12T18:18:20.373Z,23.80
2022-09-12T18:21:10.520Z,23.70
2022-09-12T18:24:02.365Z,23.70
2022-09-12T18:26:45.837Z,23.60
2022-09-12T18:29:36.385Z,23.70
2022-09-12T18:32:21.065Z,23.60
2022-09-12T18:35:11.532Z,23.50
2022-09-12T18:38:01.598Z,23.50
2022-09-12T18:40:45.374Z,23.40
2022-09-12T18:43:34.671Z,23.40
2022-09-12T18:46:20.407Z,23.40
2022-09-12T18:49:12.578Z,23.30
2022-09-12T18:52:05.364Z,23.10
2022-09-12T18:54:48.623Z,23.00
2022-09-12T18:57:42.381Z,22.90
2022-09-12T19:00:26.826Z,22.90
2022-09-12T19:03:23.443Z,22.80
2022-09-12T19:06:18.726Z,22.80
2022-09-12T19:09:10.383Z,22.90
2022-09-12T19:11:52.918Z,23.00
2022-09-12T19:14:43.479Z,23.00
2022-09-12T19:17:26.279Z,23.20
2022-09-12T19:20:18.383Z,23.00
2022-09-12T19:23:11.627Z,23.00
2022-09-12T19:26:06.470Z,23.10
2022-09-12T19:28:56.709Z,23.10
2022-09-12T19:31:39.445Z,23.00
2022-09-12T19:34:28.682Z,22.90
2022-09-12T19:37:14.383Z,22.70
2022-09-12T19:40:07.937Z,22.60
2022-09-12T19:43:00.710Z,22.50
2022-09-12T19:45:47.757Z,22.40
2022-09-12T19:48:38.531Z,22.40
2022-09-12T19:51:25.237Z,22.40
2022-09-12T19:54:15.446Z,22.40
2022-09-12T19:56:59.179Z,22.30
2022-09-12T19:59:52.485Z,22.40
2022-09-12T20:02:34.877Z,22.30
2022-09-12T20:05:26.432Z,22.30
2022-09-12T20:08:17.608Z,22.30
2022-09-12T20:11:03.468Z,22.20
2022-09-12T20:13:55.812Z,22.10
2022-09-12T20:16:46.424Z,22.00
2022-09-12T20:19:29.740Z,22.10
2022-09-12T20:22:22.412Z,22.10
2022-09-12T20:25:14.461Z,22.00
2022-09-12T20:28:10.276Z,22.00
2022-09-12T20:30:55.534Z,22.00
2022-09-12T20:33:49.833Z,21.90
2022-09-12T20:36:41.465Z,21.80
2022-09-12T20:39:27.687Z,21.80
2022-09-12T20:42:20.590Z,21.90
2022-09-12T20:45:03.595Z,21.90
2022-09-12T20:48:06.448Z,21.90
2022-09-12T20:50:49.897Z,21.80
2022-09-12T20:53:40.529Z,21.80
2022-09-12T20:56:23.183Z,21.80
2022-09-12T20:59:14.446Z,21.80
2022-09-12T21:01:57.891Z,21.80
2022-09-12T21:04:51.525Z,21.80
2022-09-12T21:07:34.889Z,21.70
2022-09-12T21:10:28.459Z,21.60
2022-09-12T21:13:18.634Z,21.40
2022-09-12T21:16:08.627Z,21.40
2022-09-12T21:18:52.672Z,21.40
2022-09-12T21:21:41.537Z,21.20
2022-09-12T21:24:25.740Z,21.10
2022-09-12T21:27:14.462Z,21.10
2022-09-12T21:29:59.656Z,21.10
2022-09-12T21:32:57.439Z,21.10
2022-09-12T21:35:45.559Z,21.20
2022-09-12T21:38:37.446Z,21.30
2022-09-12T21:41:23.142Z,21.30
2022-09-12T21:44:14.525Z,21.40
2022-09-12T21:46:57.902Z,21.40
2022-09-12T21:49:48.476Z,21.60
2022-09-12T21:52:31.910Z,21.80
2022-09-12T21:55:28.518Z,21.80
2022-09-12T21:58:21.138Z,21.70
2022-09-12T22:01:06.558Z,21.50
2022-09-12T22:03:55.747Z,21.40
2022-09-12T22:06:41.478Z,21.40
2022-09-12T22:09:31.786Z,21.50
2022-09-12T22:12:17.492Z,21.50
2022-09-12T22:15:39.519Z,21.70
2022-09-12T22:18:37.488Z,21.80
2022-09-12T22:21:21.951Z,21.60
2022-09-12T22:24:28.483Z,21.50
2022-09-12T22:27:12.325Z,21.50
2022-09-12T22:30:11.795Z,21.50
2022-09-12T22:33:09.497Z,21.30
2022-09-12T22:35:51.815Z,21.40
2022-09-12T22:38:48.561Z,21.50
2022-09-12T22:41:30.910Z,21.40
2022-09-12T22:44:28.084Z,21.40
2022-09-12T22:47:10.885Z,21.60
2022-09-12T22:50:00.577Z,21.60
2022-09-12T22:52:53.831Z,21.30
2022-09-12T22:55:38.596Z,21.30
2022-09-12T22:58:27.897Z,21.20
2022-09-12T23:01:17.620Z,21.10
2022-09-12T23:04:06.733Z,21.00
2022-09-12T23:06:51.489Z,20.90
2022-09-12T23:09:42.676Z,21.00
2022-09-12T23:12:26.470Z,20.90
2022-09-12T23:15:25.533Z,20.90
2022-09-12T23:18:24.641Z,21.10
2022-09-12T23:21:08.555Z,21.20
2022-09-12T23:23:58.488Z,21.10
2022-09-12T23:26:42.233Z,21.10
2022-09-12T23:29:32.503Z,21.10
2022-09-12T23:32:15.034Z,21.00
2022-09-12T23:35:07.489Z,21.10
2022-09-12T23:37:57.856Z,21.00
2022-09-12T23:40:42.625Z,21.00
2022-09-12T23:43:32.841Z,21.00
2022-09-12T23:46:20.609Z,21.10
2022-09-12T23:49:10.727Z,21.00
2022-09-12T23:51:55.506Z,20.90
2022-09-12T23:54:44.779Z,20.80
2022-09-12T23:57:31.586Z,20.80
